PWSweather.com
Personal Weather Stations
Station Observations
LUKAS
Viterbo, MartaIT 01010

ViterboMartaIT 01010

Lat: 42.5370989, Lon: 11.9204865

Elevation: 896

Station Type: La Crosse WS 2305

http://www.meteomarta.altervista.org/

High Low Average
Temperature 53.8°F12.1°C 46.0°F7.8°C 49.4°F9.7°C
Dew Point 45.5°F7.5°C 37.8°F3.2°C 42.3°F5.7°C
Winds 34.4 mph 55.4 kmh Calm Calm 14.0 mph SSW22.5 kmh SSW
Wind Gusts 38.7 mph62.3 kmh 1.6 mph2.6 kmh 24.0 mph38.6 kmh
Humidity 89% 66% 77%
Pressure 30.03 in1016.9 mb 29.77 in1008.1 mb -
Precipitation 0.00 in0.0 mm - -
Hour Temp Dew Point Humidity Winds Wind Gusts Pressure Precip Precip Rate Daily Precip Total
12:00 AM 46.8°F8.2°C 43.4°F6.3°C 88% Calm Calm 4.0 mph6.4 kmh 29.78 in1008.5 mb 0.00 in0.0 mm 0.00 in0.0 mm 0.00 in0.0 mm
12:15 AM 46.0°F7.8°C 42.7°F5.9°C 88% Calm Calm 1.6 mph2.6 kmh 29.78 in1008.5 mb 0.00 in0.0 mm 0.00 in0.0 mm 0.00 in0.0 mm
12:30 AM 46.0°F7.8°C 42.7°F5.9°C 88% 2.2 mph E3.5 kmh E 2.5 mph4.0 kmh 29.77 in1008.1 mb 0.00 in0.0 mm 0.00 in0.0 mm 0.00 in0.0 mm
12:45 AM 47.1°F8.4°C 44.1°F6.7°C 89% 1.6 mph NNE2.6 kmh NNE 6.7 mph10.8 kmh 29.77 in1008.1 mb 0.00 in0.0 mm 0.00 in0.0 mm 0.00 in0.0 mm
01:00 AM 46.9°F8.3°C 43.9°F6.6°C 89% Calm Calm 3.8 mph6.1 kmh 29.77 in1008.1 mb 0.00 in0.0 mm 0.00 in0.0 mm 0.00 in0.0 mm
01:15 AM 46.2°F7.9°C 43.2°F6.2°C 89% Calm Calm 2.9 mph4.7 kmh 29.77 in1008.1 mb 0.00 in0.0 mm 0.00 in0.0 mm 0.00 in0.0 mm
01:30 AM 46.0°F7.8°C 43.0°F6.1°C 89% Calm Calm 3.8 mph6.1 kmh 29.78 in1008.5 mb 0.00 in0.0 mm 0.00 in0.0 mm 0.00 in0.0 mm
01:45 AM 46.2°F7.9°C 43.2°F6.2°C 89% 1.6 mph ENE2.6 kmh ENE 3.4 mph5.5 kmh 29.77 in1008.1 mb 0.00 in0.0 mm 0.00 in0.0 mm 0.00 in0.0 mm
02:00 AM 46.6°F8.1°C 43.6°F6.4°C 89% Calm Calm 4.5 mph7.2 kmh 29.78 in1008.5 mb 0.00 in0.0 mm 0.00 in0.0 mm 0.00 in0.0 mm
02:15 AM 46.2°F7.9°C 42.9°F6.1°C 88% Calm Calm 2.5 mph4.0 kmh 29.78 in1008.5 mb 0.00 in0.0 mm 0.00 in0.0 mm 0.00 in0.0 mm
02:30 AM 46.6°F8.1°C 43.6°F6.4°C 89% 3.6 mph WNW5.8 kmh WNW 5.8 mph9.3 kmh 29.78 in1008.5 mb 0.00 in0.0 mm 0.00 in0.0 mm 0.00 in0.0 mm
02:45 AM 47.1°F8.4°C 43.8°F6.6°C 88% 5.6 mph W9.0 kmh W 7.4 mph11.9 kmh 29.78 in1008.5 mb 0.00 in0.0 mm 0.00 in0.0 mm 0.00 in0.0 mm
03:00 AM 47.1°F8.4°C 43.8°F6.6°C 88% Calm Calm 8.1 mph13.0 kmh 29.78 in1008.5 mb 0.00 in0.0 mm 0.00 in0.0 mm 0.00 in0.0 mm
03:15 AM 48.4°F9.1°C 45.0°F7.2°C 88% 9.6 mph N15.4 kmh N 9.6 mph15.4 kmh 29.78 in1008.5 mb 0.00 in0.0 mm 0.00 in0.0 mm 0.00 in0.0 mm
03:30 AM 48.9°F9.4°C 45.5°F7.5°C 88% 8.3 mph N13.4 kmh N 13.6 mph21.9 kmh 29.78 in1008.5 mb 0.00 in0.0 mm 0.00 in0.0 mm 0.00 in0.0 mm
03:45 AM 48.9°F9.4°C 45.2°F7.3°C 87% 5.6 mph WNW9.0 kmh WNW 11.2 mph18.0 kmh 29.78 in1008.5 mb 0.00 in0.0 mm 0.00 in0.0 mm 0.00 in0.0 mm
04:00 AM 48.7°F9.3°C 45.0°F7.2°C 87% 14.1 mph NE22.7 kmh NE 14.1 mph22.7 kmh 29.79 in1008.8 mb 0.00 in0.0 mm 0.00 in0.0 mm 0.00 in0.0 mm
04:15 AM 49.1°F9.5°C 45.4°F7.4°C 87% 6.9 mph W11.1 kmh W 15.9 mph25.6 kmh 29.79 in1008.8 mb 0.00 in0.0 mm 0.00 in0.0 mm 0.00 in0.0 mm
04:30 AM 49.3°F9.6°C 45.2°F7.3°C 86% 6.5 mph SW10.5 kmh SW 13.6 mph21.9 kmh 29.79 in1008.8 mb 0.00 in0.0 mm 0.00 in0.0 mm 0.00 in0.0 mm
04:45 AM 49.1°F9.5°C 44.7°F7.1°C 85% 8.3 mph SW13.4 kmh SW 13.0 mph20.9 kmh 29.79 in1008.8 mb 0.00 in0.0 mm 0.00 in0.0 mm 0.00 in0.0 mm
05:00 AM 48.4°F9.1°C 43.7°F6.5°C 84% 10.3 mph SW16.6 kmh SW 15.0 mph24.1 kmh 29.80 in1009.1 mb 0.00 in0.0 mm 0.00 in0.0 mm 0.00 in0.0 mm
05:15 AM 48.7°F9.3°C 44.4°F6.9°C 85% 10.7 mph SW17.2 kmh SW 15.0 mph24.1 kmh 29.80 in1009.1 mb 0.00 in0.0 mm 0.00 in0.0 mm 0.00 in0.0 mm
05:30 AM 48.9°F9.4°C 44.6°F7.0°C 85% 5.6 mph SW9.0 kmh SW 16.3 mph26.2 kmh 29.80 in1009.1 mb 0.00 in0.0 mm 0.00 in0.0 mm 0.00 in0.0 mm
05:45 AM 48.7°F9.3°C 44.4°F6.9°C 85% 11.4 mph SW18.3 kmh SW 18.1 mph29.1 kmh 29.81 in1009.5 mb 0.00 in0.0 mm 0.00 in0.0 mm 0.00 in0.0 mm
06:00 AM 48.7°F9.3°C 44.7°F7.1°C 86% 18.1 mph SW29.1 kmh SW 24.8 mph39.9 kmh 29.81 in1009.5 mb 0.00 in0.0 mm 0.00 in0.0 mm 0.00 in0.0 mm
06:15 AM 48.2°F9.0°C 43.9°F6.6°C 85% 15.7 mph SW25.3 kmh SW 23.9 mph38.5 kmh 29.81 in1009.5 mb 0.00 in0.0 mm 0.00 in0.0 mm 0.00 in0.0 mm
06:30 AM 48.0°F8.9°C 43.7°F6.5°C 85% 7.2 mph SW11.6 kmh SW 22.1 mph35.6 kmh 29.82 in1009.8 mb 0.00 in0.0 mm 0.00 in0.0 mm 0.00 in0.0 mm
06:45 AM 47.5°F8.6°C 42.9°F6.1°C 84% 11.9 mph SW19.2 kmh SW 26.2 mph42.2 kmh 29.84 in1010.5 mb 0.00 in0.0 mm 0.00 in0.0 mm 0.00 in0.0 mm
07:00 AM 47.3°F8.5°C 42.7°F5.9°C 84% 10.3 mph SW16.6 kmh SW 22.8 mph36.7 kmh 29.84 in1010.5 mb 0.00 in0.0 mm 0.00 in0.0 mm 0.00 in0.0 mm
07:15 AM 47.1°F8.4°C 42.2°F5.7°C 83% 19.7 mph SW31.7 kmh SW 25.5 mph41.0 kmh 29.84 in1010.5 mb 0.00 in0.0 mm 0.00 in0.0 mm 0.00 in0.0 mm
07:30 AM 46.9°F8.3°C 42.7°F5.9°C 85% 14.1 mph WSW22.7 kmh WSW 24.4 mph39.3 kmh 29.84 in1010.5 mb 0.00 in0.0 mm 0.00 in0.0 mm 0.00 in0.0 mm
07:45 AM 47.1°F8.4°C 42.5°F5.8°C 84% 11.9 mph NNE19.2 kmh NNE 28.4 mph45.7 kmh 29.85 in1010.8 mb 0.00 in0.0 mm 0.00 in0.0 mm 0.00 in0.0 mm
08:00 AM 46.8°F8.2°C 42.2°F5.7°C 84% 11.0 mph NE17.7 kmh NE 26.2 mph42.2 kmh 29.86 in1011.2 mb 0.00 in0.0 mm 0.00 in0.0 mm 0.00 in0.0 mm
08:15 AM 46.6°F8.1°C 42.3°F5.7°C 85% 12.8 mph E20.6 kmh E 24.6 mph39.6 kmh 29.86 in1011.2 mb 0.00 in0.0 mm 0.00 in0.0 mm 0.00 in0.0 mm
08:30 AM 46.8°F8.2°C 42.5°F5.8°C 85% 10.5 mph ENE16.9 kmh ENE 24.8 mph39.9 kmh 29.87 in1011.5 mb 0.00 in0.0 mm 0.00 in0.0 mm 0.00 in0.0 mm
08:45 AM 47.1°F8.4°C 42.9°F6.1°C 85% 11.9 mph E19.2 kmh E 25.1 mph40.4 kmh 29.88 in1011.9 mb 0.00 in0.0 mm 0.00 in0.0 mm 0.00 in0.0 mm
09:00 AM 47.1°F8.4°C 42.9°F6.1°C 85% 10.3 mph SSE16.6 kmh SSE 22.4 mph36.0 kmh 29.89 in1012.2 mb 0.00 in0.0 mm 0.00 in0.0 mm 0.00 in0.0 mm
09:15 AM 47.1°F8.4°C 42.9°F6.1°C 85% 13.6 mph NNW21.9 kmh NNW 22.4 mph36.0 kmh 29.89 in1012.2 mb 0.00 in0.0 mm 0.00 in0.0 mm 0.00 in0.0 mm
09:30 AM 47.5°F8.6°C 43.2°F6.2°C 85% 21.0 mph WNW33.8 kmh WNW 23.9 mph38.5 kmh 29.89 in1012.2 mb 0.00 in0.0 mm 0.00 in0.0 mm 0.00 in0.0 mm
10:00 AM 48.0°F8.9°C 43.4°F6.3°C 84% 23.0 mph NW37.0 kmh NW 29.3 mph47.2 kmh 29.89 in1012.2 mb 0.00 in0.0 mm 0.00 in0.0 mm 0.00 in0.0 mm
10:15 AM 48.4°F9.1°C 43.7°F6.5°C 84% 17.9 mph NW28.8 kmh NW 27.3 mph43.9 kmh 29.90 in1012.5 mb 0.00 in0.0 mm 0.00 in0.0 mm 0.00 in0.0 mm
10:30 AM 49.3°F9.6°C 44.3°F6.8°C 83% 19.5 mph WNW31.4 kmh WNW 25.7 mph41.4 kmh 29.90 in1012.5 mb 0.00 in0.0 mm 0.00 in0.0 mm 0.00 in0.0 mm
10:45 AM 49.8°F9.9°C 44.2°F6.8°C 81% 19.7 mph NW31.7 kmh NW 25.7 mph41.4 kmh 29.91 in1012.9 mb 0.00 in0.0 mm 0.00 in0.0 mm 0.00 in0.0 mm
11:00 AM 50.5°F10.3°C 44.3°F6.8°C 79% 26.4 mph NW42.5 kmh NW 27.7 mph44.6 kmh 29.91 in1012.9 mb 0.00 in0.0 mm 0.00 in0.0 mm 0.00 in0.0 mm
11:15 AM 50.7°F10.4°C 43.8°F6.6°C 77% 21.3 mph W34.3 kmh W 30.4 mph48.9 kmh 29.91 in1012.9 mb 0.00 in0.0 mm 0.00 in0.0 mm 0.00 in0.0 mm
11:30 AM 51.3°F10.7°C 44.3°F6.8°C 77% 10.3 mph W16.6 kmh W 30.9 mph49.7 kmh 29.91 in1012.9 mb 0.00 in0.0 mm 0.00 in0.0 mm 0.00 in0.0 mm
11:45 AM 51.6°F10.9°C 43.6°F6.4°C 74% 20.6 mph NW33.2 kmh NW 28.9 mph46.5 kmh 29.91 in1012.9 mb 0.00 in0.0 mm 0.00 in0.0 mm 0.00 in0.0 mm
12:00 PM 52.3°F11.3°C 44.0°F6.7°C 73% 19.0 mph NNW30.6 kmh NNW 32.4 mph52.1 kmh 29.90 in1012.5 mb 0.00 in0.0 mm 0.00 in0.0 mm 0.00 in0.0 mm
12:15 PM 52.5°F11.4°C 43.1°F6.2°C 70% 12.3 mph NW19.8 kmh NW 31.5 mph50.7 kmh 29.91 in1012.9 mb 0.00 in0.0 mm 0.00 in0.0 mm 0.00 in0.0 mm
12:30 PM 52.7°F11.5°C 43.3°F6.3°C 70% 21.7 mph NE34.9 kmh NE 32.2 mph51.8 kmh 29.91 in1012.9 mb 0.00 in0.0 mm 0.00 in0.0 mm 0.00 in0.0 mm
12:45 PM 53.2°F11.8°C 42.1°F5.6°C 66% 22.4 mph NW36.0 kmh NW 38.3 mph61.6 kmh 29.91 in1012.9 mb 0.00 in0.0 mm 0.00 in0.0 mm 0.00 in0.0 mm
01:00 PM 53.4°F11.9°C 42.7°F5.9°C 67% 12.3 mph WNW19.8 kmh WNW 28.6 mph46.0 kmh 29.91 in1012.9 mb 0.00 in0.0 mm 0.00 in0.0 mm 0.00 in0.0 mm
01:15 PM 53.4°F11.9°C 42.7°F5.9°C 67% 14.5 mph WNW23.3 kmh WNW 33.1 mph53.3 kmh 29.91 in1012.9 mb 0.00 in0.0 mm 0.00 in0.0 mm 0.00 in0.0 mm
01:30 PM 53.4°F11.9°C 42.7°F5.9°C 67% 10.3 mph NW16.6 kmh NW 28.2 mph45.4 kmh 29.92 in1013.2 mb 0.00 in0.0 mm 0.00 in0.0 mm 0.00 in0.0 mm
01:45 PM 53.8°F12.1°C 42.6°F5.9°C 66% 9.4 mph NW15.1 kmh NW 38.7 mph62.3 kmh 29.91 in1012.9 mb 0.00 in0.0 mm 0.00 in0.0 mm 0.00 in0.0 mm
02:00 PM 53.8°F12.1°C 42.6°F5.9°C 66% 6.7 mph NNW10.8 kmh NNW 27.5 mph44.3 kmh 29.91 in1012.9 mb 0.00 in0.0 mm 0.00 in0.0 mm 0.00 in0.0 mm
02:15 PM 53.4°F11.9°C 42.7°F5.9°C 67% 10.1 mph NW16.3 kmh NW 35.1 mph56.5 kmh 29.90 in1012.5 mb 0.00 in0.0 mm 0.00 in0.0 mm 0.00 in0.0 mm
02:30 PM 53.4°F11.9°C 42.3°F5.7°C 66% 17.4 mph NE28.0 kmh NE 27.3 mph43.9 kmh 29.90 in1012.5 mb 0.00 in0.0 mm 0.00 in0.0 mm 0.00 in0.0 mm
02:45 PM 53.2°F11.8°C 42.5°F5.8°C 67% 17.2 mph NE27.7 kmh NE 31.8 mph51.2 kmh 29.91 in1012.9 mb 0.00 in0.0 mm 0.00 in0.0 mm 0.00 in0.0 mm
03:00 PM 53.1°F11.7°C 42.4°F5.8°C 67% 24.8 mph NNW39.9 kmh NNW 32.9 mph52.9 kmh 29.91 in1012.9 mb 0.00 in0.0 mm 0.00 in0.0 mm 0.00 in0.0 mm
03:15 PM 52.9°F11.6°C 42.2°F5.7°C 67% 18.3 mph NW29.5 kmh NW 34.7 mph55.8 kmh 29.92 in1013.2 mb 0.00 in0.0 mm 0.00 in0.0 mm 0.00 in0.0 mm
03:30 PM 52.7°F11.5°C 41.6°F5.3°C 66% 16.6 mph NE26.7 kmh NE 26.6 mph42.8 kmh 29.92 in1013.2 mb 0.00 in0.0 mm 0.00 in0.0 mm 0.00 in0.0 mm
03:45 PM 52.5°F11.4°C 42.3°F5.7°C 68% 24.6 mph NE39.6 kmh NE 33.3 mph53.6 kmh 29.91 in1012.9 mb 0.00 in0.0 mm 0.00 in0.0 mm 0.00 in0.0 mm
04:00 PM 52.2°F11.2°C 41.5°F5.3°C 67% 11.9 mph NE19.2 kmh NE 36.2 mph58.3 kmh 29.92 in1013.2 mb 0.00 in0.0 mm 0.00 in0.0 mm 0.00 in0.0 mm
04:15 PM 52.0°F11.1°C 41.8°F5.4°C 68% 11.2 mph N18.0 kmh N 29.3 mph47.2 kmh 29.93 in1013.5 mb 0.00 in0.0 mm 0.00 in0.0 mm 0.00 in0.0 mm
04:30 PM 52.0°F11.1°C 42.2°F5.7°C 69% 34.0 mph NW54.7 kmh NW 34.0 mph54.7 kmh 29.93 in1013.5 mb 0.00 in0.0 mm 0.00 in0.0 mm 0.00 in0.0 mm
04:45 PM 51.8°F11.0°C 42.0°F5.6°C 69% 27.5 mph N44.3 kmh N 34.7 mph55.8 kmh 29.94 in1013.9 mb 0.00 in0.0 mm 0.00 in0.0 mm 0.00 in0.0 mm
05:00 PM 51.6°F10.9°C 41.8°F5.4°C 69% 20.4 mph NE32.8 kmh NE 28.2 mph45.4 kmh 29.95 in1014.2 mb 0.00 in0.0 mm 0.00 in0.0 mm 0.00 in0.0 mm
05:15 PM 51.4°F10.8°C 41.7°F5.4°C 69% 23.3 mph NE37.5 kmh NE 24.6 mph39.6 kmh 29.95 in1014.2 mb 0.00 in0.0 mm 0.00 in0.0 mm 0.00 in0.0 mm
05:30 PM 51.1°F10.6°C 40.9°F4.9°C 68% 16.6 mph NNW26.7 kmh NNW 29.8 mph48.0 kmh 29.96 in1014.6 mb 0.00 in0.0 mm 0.00 in0.0 mm 0.00 in0.0 mm
05:45 PM 50.9°F10.5°C 41.1°F5.1°C 69% 17.2 mph NNW27.7 kmh NNW 32.2 mph51.8 kmh 29.96 in1014.6 mb 0.00 in0.0 mm 0.00 in0.0 mm 0.00 in0.0 mm
06:00 PM 50.7°F10.4°C 40.9°F4.9°C 69% 15.7 mph E25.3 kmh E 31.3 mph50.4 kmh 29.97 in1014.9 mb 0.00 in0.0 mm 0.00 in0.0 mm 0.00 in0.0 mm
06:15 PM 50.7°F10.4°C 41.4°F5.2°C 70% 7.4 mph NNE11.9 kmh NNE 26.8 mph43.1 kmh 29.98 in1015.2 mb 0.00 in0.0 mm 0.00 in0.0 mm 0.00 in0.0 mm
06:30 PM 50.5°F10.3°C 41.5°F5.3°C 71% 26.8 mph NNW43.1 kmh NNW 28.4 mph45.7 kmh 29.98 in1015.2 mb 0.00 in0.0 mm 0.00 in0.0 mm 0.00 in0.0 mm
06:45 PM 50.4°F10.2°C 41.0°F5.0°C 70% 17.2 mph N27.7 kmh N 33.1 mph53.3 kmh 29.99 in1015.6 mb 0.00 in0.0 mm 0.00 in0.0 mm 0.00 in0.0 mm
07:00 PM 50.4°F10.2°C 41.0°F5.0°C 70% 15.9 mph NNW25.6 kmh NNW 33.8 mph54.4 kmh 29.99 in1015.6 mb 0.00 in0.0 mm 0.00 in0.0 mm 0.00 in0.0 mm
07:15 PM 50.0°F10.0°C 40.2°F4.6°C 69% 5.4 mph NNW8.7 kmh NNW 28.9 mph46.5 kmh 29.99 in1015.6 mb 0.00 in0.0 mm 0.00 in0.0 mm 0.00 in0.0 mm
07:30 PM 49.8°F9.9°C 40.5°F4.7°C 70% 17.0 mph N27.4 kmh N 27.7 mph44.6 kmh 29.99 in1015.6 mb 0.00 in0.0 mm 0.00 in0.0 mm 0.00 in0.0 mm
07:45 PM 49.6°F9.8°C 40.3°F4.6°C 70% 15.0 mph NE24.1 kmh NE 23.5 mph37.8 kmh 29.99 in1015.6 mb 0.00 in0.0 mm 0.00 in0.0 mm 0.00 in0.0 mm
08:00 PM 49.6°F9.8°C 39.9°F4.4°C 69% 19.0 mph N30.6 kmh N 30.6 mph49.2 kmh 30.00 in1015.9 mb 0.00 in0.0 mm 0.00 in0.0 mm 0.00 in0.0 mm
08:15 PM 49.6°F9.8°C 40.3°F4.6°C 70% 14.1 mph N22.7 kmh N 33.3 mph53.6 kmh 30.00 in1015.9 mb 0.00 in0.0 mm 0.00 in0.0 mm 0.00 in0.0 mm
08:30 PM 49.6°F9.8°C 39.9°F4.4°C 69% 15.0 mph NW24.1 kmh NW 34.4 mph55.4 kmh 30.00 in1015.9 mb 0.00 in0.0 mm 0.00 in0.0 mm 0.00 in0.0 mm
08:45 PM 49.5°F9.7°C 40.8°F4.9°C 72% 21.0 mph NE33.8 kmh NE 35.1 mph56.5 kmh 30.01 in1016.3 mb 0.00 in0.0 mm 0.00 in0.0 mm 0.00 in0.0 mm
09:00 PM 49.1°F9.5°C 39.0°F3.9°C 68% 19.7 mph NW31.7 kmh NW 35.3 mph56.8 kmh 30.01 in1016.3 mb 0.00 in0.0 mm 0.00 in0.0 mm 0.00 in0.0 mm
09:15 PM 48.9°F9.4°C 39.2°F4.0°C 69% 8.1 mph WSW13.0 kmh WSW 26.8 mph43.1 kmh 30.02 in1016.6 mb 0.00 in0.0 mm 0.00 in0.0 mm 0.00 in0.0 mm
09:30 PM 48.9°F9.4°C 38.8°F3.8°C 68% 17.2 mph NNE27.7 kmh NNE 29.1 mph46.8 kmh 30.02 in1016.6 mb 0.00 in0.0 mm 0.00 in0.0 mm 0.00 in0.0 mm
09:45 PM 48.7°F9.3°C 38.6°F3.7°C 68% 23.0 mph N37.0 kmh N 31.1 mph50.1 kmh 30.02 in1016.6 mb 0.00 in0.0 mm 0.00 in0.0 mm 0.00 in0.0 mm
10:00 PM 48.7°F9.3°C 39.0°F3.9°C 69% 20.1 mph NE32.3 kmh NE 29.3 mph47.2 kmh 30.02 in1016.6 mb 0.00 in0.0 mm 0.00 in0.0 mm 0.00 in0.0 mm
10:15 PM 48.6°F9.2°C 38.8°F3.8°C 69% 19.7 mph WNW31.7 kmh WNW 23.9 mph38.5 kmh 30.02 in1016.6 mb 0.00 in0.0 mm 0.00 in0.0 mm 0.00 in0.0 mm
10:30 PM 48.6°F9.2°C 38.8°F3.8°C 69% 15.9 mph NNW25.6 kmh NNW 24.8 mph39.9 kmh 30.02 in1016.6 mb 0.00 in0.0 mm 0.00 in0.0 mm 0.00 in0.0 mm
10:45 PM 48.4°F9.1°C 38.1°F3.4°C 68% 25.1 mph NW40.4 kmh NW 29.3 mph47.2 kmh 30.01 in1016.3 mb 0.00 in0.0 mm 0.00 in0.0 mm 0.00 in0.0 mm
11:00 PM 48.0°F8.9°C 37.9°F3.3°C 68% 17.9 mph NW28.8 kmh NW 33.1 mph53.3 kmh 30.02 in1016.6 mb 0.00 in0.0 mm 0.00 in0.0 mm 0.00 in0.0 mm
11:15 PM 48.0°F8.9°C 38.3°F3.5°C 69% 34.4 mph NNW55.4 kmh NNW 34.4 mph55.4 kmh 30.02 in1016.6 mb 0.00 in0.0 mm 0.00 in0.0 mm 0.00 in0.0 mm
11:30 PM 47.5°F8.6°C 37.8°F3.2°C 69% 17.2 mph N27.7 kmh N 31.1 mph50.1 kmh 30.03 in1016.9 mb 0.00 in0.0 mm 0.00 in0.0 mm 0.00 in0.0 mm
11:45 PM 47.5°F8.6°C 38.2°F3.4°C 70% 14.1 mph N22.7 kmh N 26.2 mph42.2 kmh 30.03 in1016.9 mb 0.00 in0.0 mm 0.00 in0.0 mm 0.00 in0.0 mm